createdAt,value
2023-05-02T00:00:10.077Z,18.17
2023-05-02T00:02:37.464Z,18.20
2023-05-02T00:05:06.897Z,17.88
2023-05-02T00:07:36.899Z,18.20
2023-05-02T00:10:06.037Z,17.88
2023-05-02T00:12:34.683Z,18.08
2023-05-02T00:15:02.316Z,17.88
2023-05-02T00:17:31.211Z,15.90
2023-05-02T00:19:59.438Z,18.73
2023-05-02T00:22:27.167Z,18.08
2023-05-02T00:24:58.844Z,19.30
2023-05-02T00:27:26.587Z,17.65
2023-05-02T00:29:55.960Z,16.20
2023-05-02T00:32:23.697Z,16.50
2023-05-02T00:34:51.224Z,18.10
2023-05-02T00:37:19.826Z,17.27
2023-05-02T00:39:47.110Z,16.40
2023-05-02T00:42:14.415Z,17.55
2023-05-02T00:44:41.707Z,17.85
2023-05-02T00:47:10.741Z,18.00
2023-05-02T00:49:39.012Z,18.02
2023-05-02T00:52:07.704Z,20.42
2023-05-02T00:54:39.224Z,17.27
2023-05-02T00:57:09.437Z,16.85
2023-05-02T00:59:37.506Z,16.33
2023-05-02T01:02:43.246Z,16.27
2023-05-02T01:06:10.646Z,15.43
2023-05-02T01:09:00.981Z,12.90
2023-05-02T01:12:22.043Z,13.48
2023-05-02T01:14:56.646Z,13.77
2023-05-02T01:17:32.909Z,12.70
2023-05-02T01:20:10.100Z,14.73
2023-05-02T01:22:41.121Z,13.07
2023-05-02T01:25:17.107Z,14.90
2023-05-02T01:28:38.808Z,14.40
2023-05-02T01:31:09.212Z,14.52
2023-05-02T01:33:39.302Z,15.02
2023-05-02T01:36:09.787Z,16.20
2023-05-02T01:38:40.613Z,18.05
2023-05-02T01:41:11.311Z,15.57
2023-05-02T01:43:41.745Z,15.50
2023-05-02T01:46:14.574Z,15.32
2023-05-02T01:48:47.486Z,14.55
2023-05-02T01:51:19.072Z,13.63
2023-05-02T01:53:50.404Z,14.88
2023-05-02T01:56:21.367Z,15.90
2023-05-02T01:58:51.129Z,15.70
2023-05-02T02:01:20.297Z,15.10
2023-05-02T02:03:48.562Z,14.18
2023-05-02T02:06:21.136Z,15.25
2023-05-02T02:08:50.952Z,16.73
2023-05-02T02:11:33.410Z,16.88
2023-05-02T02:14:26.647Z,16.05
2023-05-02T02:17:01.679Z,16.08
2023-05-02T02:19:33.303Z,17.38
2023-05-02T02:22:05.270Z,16.38
2023-05-02T02:24:36.855Z,16.63
2023-05-02T02:27:04.295Z,16.00
2023-05-02T02:29:31.710Z,17.73
2023-05-02T02:32:00.173Z,17.60
2023-05-02T02:34:27.488Z,17.90
2023-05-02T02:37:05.764Z,17.42
2023-05-02T02:40:05.938Z,18.40
2023-05-02T02:43:21.538Z,20.17
2023-05-02T02:46:46.431Z,16.55
2023-05-02T02:50:04.115Z,16.35
2023-05-02T02:53:05.453Z,17.05
2023-05-02T02:56:00.610Z,16.17
2023-05-02T02:59:05.242Z,16.90
2023-05-02T03:01:40.012Z,14.10
2023-05-02T03:04:13.469Z,15.15
2023-05-02T03:06:42.312Z,15.18
2023-05-02T03:09:20.445Z,14.25
2023-05-02T03:11:51.968Z,14.77
2023-05-02T03:14:19.221Z,13.25
2023-05-02T03:16:47.122Z,13.00
2023-05-02T03:19:16.331Z,13.43
2023-05-02T03:21:43.634Z,12.07
2023-05-02T03:24:19.205Z,7.93
2023-05-02T03:26:48.203Z,8.07
2023-05-02T03:29:18.866Z,5.45
2023-05-02T03:31:46.231Z,5.07
2023-05-02T03:34:13.716Z,7.90
2023-05-02T03:36:42.159Z,6.70
2023-05-02T03:39:09.477Z,8.20
2023-05-02T03:41:37.385Z,7.70
2023-05-02T03:44:09.922Z,8.30
2023-05-02T03:46:37.933Z,7.15
2023-05-02T03:49:10.475Z,7.43
2023-05-02T03:51:38.443Z,7.30
2023-05-02T03:54:05.834Z,6.82
2023-05-02T03:56:34.189Z,7.03
2023-05-02T03:59:24.303Z,6.57
2023-05-02T04:01:52.265Z,6.20
2023-05-02T04:04:24.224Z,4.75
2023-05-02T04:06:54.116Z,6.13
2023-05-02T04:09:25.629Z,4.85
2023-05-02T04:12:16.927Z,5.55
2023-05-02T04:14:48.274Z,4.20
2023-05-02T04:17:16.162Z,4.63
2023-05-02T04:19:48.176Z,3.90
2023-05-02T04:22:16.064Z,2.63
2023-05-02T04:24:47.883Z,3.85
2023-05-02T04:27:15.810Z,3.10
2023-05-02T04:29:43.941Z,3.35
2023-05-02T04:32:12.879Z,3.58
2023-05-02T04:34:41.556Z,3.08
2023-05-02T04:37:09.935Z,3.13
2023-05-02T04:39:38.180Z,3.72
2023-05-02T04:42:14.281Z,3.87
2023-05-02T04:44:51.110Z,3.55
2023-05-02T04:47:18.430Z,3.30
2023-05-02T04:49:45.991Z,3.70
2023-05-02T04:52:13.453Z,3.10
2023-05-02T04:54:40.885Z,2.90
2023-05-02T04:57:10.197Z,4.05
2023-05-02T04:59:42.830Z,3.83
2023-05-02T05:02:12.711Z,3.28
2023-05-02T05:04:42.885Z,3.65
2023-05-02T05:07:10.139Z,3.25
2023-05-02T05:09:37.506Z,2.63
2023-05-02T05:12:12.940Z,3.88
2023-05-02T05:14:41.490Z,3.53
2023-05-02T05:17:09.783Z,3.35
2023-05-02T05:19:39.419Z,3.75
2023-05-02T05:22:08.799Z,3.40
2023-05-02T05:24:36.334Z,3.00
2023-05-02T05:27:06.115Z,2.92
2023-05-02T05:29:33.588Z,3.65
2023-05-02T05:32:01.558Z,3.10
2023-05-02T05:34:30.734Z,3.10
2023-05-02T05:37:01.121Z,3.33
2023-05-02T05:39:28.905Z,3.83
2023-05-02T05:44:43.511Z,3.97
2023-05-02T05:47:12.310Z,3.45
2023-05-02T05:49:40.085Z,3.90
2023-05-02T05:52:12.043Z,3.95
2023-05-02T05:54:43.498Z,3.63
2023-05-02T05:57:10.914Z,2.90
2023-05-02T05:59:40.784Z,3.13
2023-05-02T06:02:09.386Z,4.88
2023-05-02T06:04:38.374Z,4.05
2023-05-02T06:07:07.560Z,3.63
2023-05-02T06:09:36.255Z,4.28
2023-05-02T06:12:06.025Z,4.22
2023-05-02T06:14:34.660Z,3.10
2023-05-02T06:17:03.559Z,3.45
2023-05-02T06:19:38.804Z,3.45
2023-05-02T06:22:07.174Z,3.70
2023-05-02T06:24:34.649Z,2.83
2023-05-02T06:27:04.431Z,3.72
2023-05-02T06:29:38.943Z,4.70
2023-05-02T06:32:06.985Z,3.58
2023-05-02T06:34:40.499Z,3.90
2023-05-02T06:37:10.066Z,4.45
2023-05-02T06:39:39.098Z,4.78
2023-05-02T06:42:06.456Z,3.67
2023-05-02T06:44:34.600Z,3.65
2023-05-02T06:47:03.868Z,3.40
2023-05-02T06:49:32.911Z,4.32
2023-05-02T06:52:00.707Z,2.28
2023-05-02T06:54:29.217Z,2.45
2023-05-02T06:56:58.688Z,2.97
2023-05-02T06:59:28.498Z,4.38
2023-05-02T07:01:55.799Z,4.45
2023-05-02T07:04:26.369Z,3.40
2023-05-02T07:06:53.866Z,3.80
2023-05-02T07:09:22.892Z,4.80
2023-05-02T07:11:52.278Z,4.22
2023-05-02T07:14:19.568Z,4.65
2023-05-02T07:16:47.457Z,4.90
2023-05-02T07:19:15.001Z,4.50
2023-05-02T07:21:42.421Z,4.75
2023-05-02T07:24:09.761Z,4.43
2023-05-02T07:26:37.213Z,3.53
2023-05-02T07:29:07.050Z,3.65
2023-05-02T07:31:34.632Z,4.45
2023-05-02T07:34:01.895Z,4.05
2023-05-02T07:36:29.245Z,5.07
2023-05-02T07:38:56.656Z,4.75
2023-05-02T07:41:24.074Z,4.55
2023-05-02T07:43:51.488Z,4.57
2023-05-02T07:46:18.872Z,4.22
2023-05-02T07:48:46.259Z,5.28
2023-05-02T07:51:13.800Z,5.38
2023-05-02T07:53:41.551Z,4.93
2023-05-02T07:56:09.139Z,4.72
2023-05-02T07:58:39.260Z,5.13
2023-05-02T08:01:07.068Z,4.05
2023-05-02T08:03:36.841Z,2.33
2023-05-02T08:06:07.180Z,4.22
2023-05-02T08:08:36.379Z,3.38
2023-05-02T08:11:04.094Z,2.95
2023-05-02T08:13:32.573Z,3.33
2023-05-02T08:16:01.648Z,4.57
2023-05-02T08:18:29.936Z,4.15
2023-05-02T08:20:58.600Z,2.78
2023-05-02T08:23:26.221Z,2.70
2023-05-02T08:25:54.852Z,3.10
2023-05-02T08:28:22.663Z,3.17
2023-05-02T08:30:49.995Z,2.60
2023-05-02T08:33:17.464Z,2.25
2023-05-02T08:35:44.899Z,1.77
2023-05-02T08:38:14.301Z,1.98
2023-05-02T08:40:43.320Z,2.03
2023-05-02T08:43:13.074Z,3.03
2023-05-02T08:45:45.257Z,1.60
2023-05-02T08:48:17.414Z,2.10
2023-05-02T08:50:48.230Z,1.58
2023-05-02T08:53:18.042Z,2.42
2023-05-02T08:55:49.321Z,2.88
2023-05-02T08:58:17.836Z,3.17
2023-05-02T09:00:52.153Z,2.70
2023-05-02T09:03:34.288Z,2.58
2023-05-02T09:06:13.107Z,3.58
2023-05-02T09:08:42.904Z,2.70
2023-05-02T09:11:13.696Z,4.00
2023-05-02T09:13:48.349Z,4.50
2023-05-02T09:16:26.899Z,3.22
2023-05-02T09:18:59.380Z,3.53
2023-05-02T09:21:42.306Z,4.35
2023-05-02T09:24:22.249Z,4.13
2023-05-02T09:27:05.428Z,3.40
2023-05-02T09:29:40.959Z,3.10
2023-05-02T09:32:08.311Z,3.72
2023-05-02T09:34:39.244Z,3.92
2023-05-02T09:37:07.018Z,3.45
2023-05-02T09:39:34.354Z,3.50
2023-05-02T09:42:02.761Z,3.67
2023-05-02T09:44:46.225Z,3.65
2023-05-02T09:47:27.342Z,3.15
2023-05-02T09:49:59.927Z,3.42
2023-05-02T09:52:29.533Z,3.88
2023-05-02T09:54:57.880Z,2.90
2023-05-02T09:57:43.705Z,2.80
2023-05-02T10:00:16.154Z,3.35
2023-05-02T10:02:43.792Z,2.97
2023-05-02T10:05:20.335Z,2.88
2023-05-02T10:07:52.003Z,3.45
2023-05-02T10:10:22.596Z,2.70
2023-05-02T10:12:53.021Z,3.20
2023-05-02T10:15:23.585Z,3.65
2023-05-02T10:17:56.893Z,2.40
2023-05-02T10:20:43.162Z,3.15
2023-05-02T10:23:12.368Z,3.20
2023-05-02T10:25:43.269Z,2.45
2023-05-02T10:28:11.389Z,3.85
2023-05-02T10:30:41.480Z,4.03
2023-05-02T10:33:11.432Z,2.17
2023-05-02T10:35:47.276Z,3.45
2023-05-02T10:38:26.766Z,3.22
2023-05-02T10:41:09.121Z,4.65
2023-05-02T10:43:39.180Z,3.47
2023-05-02T10:46:36.199Z,3.50
2023-05-02T10:49:11.218Z,3.37
2023-05-02T10:51:43.575Z,4.50
2023-05-02T10:54:21.828Z,3.50
2023-05-02T10:57:08.587Z,4.25
2023-05-02T11:00:22.201Z,3.58
2023-05-02T11:02:50.518Z,3.47
2023-05-02T11:05:19.034Z,2.95
2023-05-02T11:08:16.520Z,3.58
2023-05-02T11:10:48.930Z,3.75
2023-05-02T11:13:50.029Z,3.25
2023-05-02T11:16:18.834Z,3.53
2023-05-02T11:19:03.735Z,2.90
2023-05-02T11:21:32.919Z,3.03
2023-05-02T11:24:42.376Z,3.38
2023-05-02T11:27:38.016Z,3.13
2023-05-02T11:30:09.318Z,3.30
2023-05-02T11:32:45.887Z,3.80
2023-05-02T11:35:37.372Z,3.13
2023-05-02T11:38:17.359Z,3.47
2023-05-02T11:41:02.959Z,2.67
2023-05-02T11:46:02.543Z,2.60
2023-05-02T11:48:34.897Z,3.05
2023-05-02T11:51:04.433Z,2.80
2023-05-02T11:53:32.870Z,2.80
2023-05-02T11:56:04.839Z,2.60
2023-05-02T11:58:34.283Z,4.22
2023-05-02T12:01:17.351Z,3.30
2023-05-02T12:03:45.245Z,3.35
2023-05-02T12:06:18.947Z,3.30
2023-05-02T12:08:50.576Z,3.15
2023-05-02T12:11:21.640Z,3.47
2023-05-02T12:13:50.678Z,3.50
2023-05-02T12:16:19.723Z,3.83
2023-05-02T12:18:49.014Z,4.30
2023-05-02T12:21:17.990Z,3.92
2023-05-02T12:23:46.881Z,3.33
2023-05-02T12:26:25.590Z,3.78
2023-05-02T12:28:55.769Z,3.67
2023-05-02T12:31:25.052Z,3.55
2023-05-02T12:34:08.442Z,3.22
2023-05-02T12:36:43.608Z,3.03
2023-05-02T12:39:12.070Z,3.65
2023-05-02T12:41:44.181Z,3.78
2023-05-02T12:44:13.022Z,3.40
2023-05-02T12:47:06.155Z,3.55
2023-05-02T12:50:08.612Z,3.78
2023-05-02T12:52:59.169Z,3.60
2023-05-02T12:55:27.860Z,3.60
2023-05-02T12:58:17.259Z,3.40
2023-05-02T13:00:47.872Z,5.35
2023-05-02T13:03:16.119Z,4.90
2023-05-02T13:05:47.568Z,4.55
2023-05-02T13:08:21.264Z,4.50
2023-05-02T13:10:49.352Z,4.65
2023-05-02T13:13:16.859Z,5.00
2023-05-02T13:15:45.541Z,3.88
2023-05-02T13:18:16.610Z,4.35
2023-05-02T13:20:46.429Z,4.25
2023-05-02T13:23:16.946Z,5.07
2023-05-02T13:25:47.573Z,4.18
2023-05-02T13:28:23.791Z,3.83
2023-05-02T13:30:51.282Z,4.20
2023-05-02T13:33:28.379Z,3.50
2023-05-02T13:35:57.005Z,4.28
2023-05-02T13:38:26.145Z,4.45
2023-05-02T13:41:01.729Z,4.35
2023-05-02T13:43:30.062Z,3.80
2023-05-02T13:46:00.085Z,3.90
2023-05-02T13:48:30.047Z,4.25
2023-05-02T13:50:59.300Z,4.03
2023-05-02T13:53:29.424Z,3.25
2023-05-02T13:55:57.654Z,3.90
2023-05-02T13:58:26.220Z,3.80
2023-05-02T14:00:53.578Z,5.00
2023-05-02T14:03:21.910Z,4.40
2023-05-02T14:05:49.281Z,4.57
2023-05-02T14:08:25.489Z,4.75
2023-05-02T14:10:54.365Z,3.67
2023-05-02T14:13:23.072Z,5.13
2023-05-02T14:16:05.261Z,5.40
2023-05-02T14:21:06.490Z,4.00
2023-05-02T14:23:34.068Z,4.70
2023-05-02T14:26:13.751Z,4.40
2023-05-02T14:28:45.978Z,4.80
2023-05-02T14:31:14.126Z,4.93
2023-05-02T14:33:43.132Z,4.20
2023-05-02T14:36:15.020Z,4.90
2023-05-02T14:38:50.539Z,5.18
2023-05-02T14:41:21.566Z,4.95
2023-05-02T14:43:53.975Z,4.03
2023-05-02T14:46:23.877Z,4.95
2023-05-02T14:48:52.883Z,5.45
2023-05-02T14:51:23.234Z,4.80
2023-05-02T14:53:51.721Z,5.25
2023-05-02T14:56:21.067Z,5.40
2023-05-02T14:59:03.188Z,5.00
2023-05-02T15:01:30.781Z,4.40
2023-05-02T15:04:06.408Z,4.45
2023-05-02T15:06:38.830Z,5.57
2023-05-02T15:09:12.906Z,5.10
2023-05-02T15:11:51.299Z,4.90
2023-05-02T15:14:22.523Z,4.93
2023-05-02T15:17:08.927Z,5.47
2023-05-02T15:19:40.002Z,5.78
2023-05-02T15:22:13.522Z,4.80
2023-05-02T15:24:41.682Z,4.82
2023-05-02T15:27:16.664Z,5.57
2023-05-02T15:29:44.429Z,4.40
2023-05-02T15:32:13.698Z,4.10
2023-05-02T15:37:17.130Z,5.35
2023-05-02T15:39:45.533Z,4.47
2023-05-02T15:42:13.931Z,4.82
2023-05-02T15:45:02.220Z,4.68
2023-05-02T15:47:31.533Z,4.13
2023-05-02T15:49:59.363Z,4.40
2023-05-02T15:52:27.292Z,4.68
2023-05-02T15:54:56.124Z,3.70
2023-05-02T15:57:26.671Z,4.00
2023-05-02T15:59:54.036Z,4.32
2023-05-02T16:02:22.469Z,4.70
2023-05-02T16:04:49.811Z,5.15
2023-05-02T16:07:17.091Z,5.35
2023-05-02T16:09:44.481Z,3.75
2023-05-02T16:12:11.934Z,3.83
2023-05-02T16:14:39.376Z,4.05
2023-05-02T16:17:06.816Z,4.68
2023-05-02T16:19:34.110Z,4.65
2023-05-02T16:22:03.151Z,4.65
2023-05-02T16:24:30.874Z,4.63
2023-05-02T16:26:59.413Z,4.45
2023-05-02T16:29:26.752Z,4.07
2023-05-02T16:31:54.464Z,4.85
2023-05-02T16:34:23.581Z,4.18
2023-05-02T16:36:54.107Z,4.72
2023-05-02T16:39:22.692Z,4.20
2023-05-02T16:41:51.209Z,4.63
2023-05-02T16:44:18.740Z,4.30
2023-05-02T16:46:47.571Z,4.15
2023-05-02T16:49:14.851Z,5.28
2023-05-02T16:51:42.926Z,4.63
2023-05-02T16:54:11.093Z,4.47
2023-05-02T16:56:40.732Z,3.53
2023-05-02T16:59:10.060Z,4.50
2023-05-02T17:01:37.741Z,4.95
2023-05-02T17:04:05.118Z,4.03
2023-05-02T17:06:32.460Z,4.60
2023-05-02T17:09:00.201Z,3.90
2023-05-02T17:11:28.552Z,3.63
2023-05-02T17:13:56.282Z,4.57
2023-05-02T17:16:23.591Z,3.55
2023-05-02T17:18:50.894Z,5.07
2023-05-02T17:21:19.748Z,4.20
2023-05-02T17:23:47.529Z,5.22
2023-05-02T17:26:17.671Z,3.85
2023-05-02T17:28:45.930Z,3.80
2023-05-02T17:31:13.625Z,4.18
2023-05-02T17:33:42.304Z,4.00
2023-05-02T17:36:09.889Z,6.10
2023-05-02T17:38:37.217Z,4.10
2023-05-02T17:41:05.738Z,4.22
2023-05-02T17:43:33.057Z,3.42
2023-05-02T17:46:00.384Z,3.75
2023-05-02T17:48:29.889Z,3.97
2023-05-02T17:51:04.700Z,4.03
2023-05-02T17:53:32.108Z,3.90
2023-05-02T17:56:03.496Z,4.32
2023-05-02T17:58:35.101Z,4.00
2023-05-02T18:01:11.213Z,3.45
2023-05-02T18:03:39.025Z,4.10
2023-05-02T18:06:07.063Z,3.53
2023-05-02T18:08:34.790Z,4.10
2023-05-02T18:11:03.679Z,4.35
2023-05-02T18:13:31.061Z,4.03
2023-05-02T18:16:01.494Z,4.35
2023-05-02T18:18:30.323Z,3.75
2023-05-02T18:20:58.926Z,4.63
2023-05-02T18:23:26.159Z,4.50
2023-05-02T18:25:54.808Z,4.18
2023-05-02T18:28:22.415Z,2.55
2023-05-02T18:30:50.456Z,3.10
2023-05-02T18:33:18.457Z,3.95
2023-05-02T18:35:47.914Z,3.25
2023-05-02T18:38:16.152Z,3.55
2023-05-02T18:40:43.628Z,4.05
2023-05-02T18:43:13.623Z,3.58
2023-05-02T18:45:40.965Z,2.58
2023-05-02T18:48:15.092Z,4.20
2023-05-02T18:50:43.415Z,2.97
2023-05-02T18:53:12.435Z,3.47
2023-05-02T18:55:39.673Z,2.83
2023-05-02T18:58:06.952Z,3.22
2023-05-02T19:00:36.961Z,3.15
2023-05-02T19:03:04.684Z,3.65
2023-05-02T19:05:34.652Z,3.38
2023-05-02T19:08:02.027Z,2.65
2023-05-02T19:10:30.318Z,4.03
2023-05-02T19:12:59.012Z,3.35
2023-05-02T19:15:26.961Z,2.50
2023-05-02T19:17:55.840Z,3.58
2023-05-02T19:20:23.592Z,3.13
2023-05-02T19:22:54.102Z,3.33
2023-05-02T19:25:25.306Z,3.38
2023-05-02T19:27:55.040Z,2.97
2023-05-02T19:30:22.494Z,2.83
2023-05-02T19:32:50.382Z,2.75
2023-05-02T19:35:18.132Z,3.35
2023-05-02T19:37:45.554Z,4.13
2023-05-02T19:40:13.985Z,3.38
2023-05-02T19:42:41.369Z,3.65
2023-05-02T19:45:09.996Z,3.42
2023-05-02T19:47:38.496Z,2.97
2023-05-02T19:50:07.029Z,2.53
2023-05-02T19:52:34.811Z,3.60
2023-05-02T19:55:02.483Z,3.30
2023-05-02T19:57:29.968Z,3.55
2023-05-02T19:59:57.641Z,3.17
2023-05-02T20:02:25.565Z,2.92
2023-05-02T20:04:53.028Z,2.80
2023-05-02T20:07:20.442Z,3.20
2023-05-02T20:09:47.732Z,3.80
2023-05-02T20:12:14.951Z,3.47
2023-05-02T20:14:42.387Z,3.13
2023-05-02T20:17:10.679Z,3.83
2023-05-02T20:19:38.006Z,3.55
2023-05-02T20:22:05.260Z,4.00
2023-05-02T20:24:32.490Z,3.58
2023-05-02T20:26:59.848Z,3.08
2023-05-02T20:29:27.101Z,4.10
2023-05-02T20:31:56.273Z,3.67
2023-05-02T20:34:24.277Z,3.40
2023-05-02T20:36:53.372Z,2.90
2023-05-02T20:39:21.767Z,3.67
2023-05-02T20:41:49.801Z,3.75
2023-05-02T20:44:22.444Z,3.17
2023-05-02T20:46:51.517Z,4.55
2023-05-02T20:49:19.053Z,3.65
2023-05-02T20:51:46.340Z,2.97
2023-05-02T20:54:15.602Z,3.28
2023-05-02T20:56:42.936Z,2.65
2023-05-02T20:59:11.512Z,4.05
2023-05-02T21:01:38.979Z,3.65
2023-05-02T21:04:06.411Z,3.47
2023-05-02T21:06:34.827Z,3.10
2023-05-02T21:09:02.833Z,3.55
2023-05-02T21:11:30.158Z,3.20
2023-05-02T21:13:57.453Z,2.78
2023-05-02T21:16:24.696Z,3.22
2023-05-02T21:18:53.117Z,2.92
2023-05-02T21:21:20.470Z,2.85
2023-05-02T21:23:47.771Z,2.75
2023-05-02T21:26:15.003Z,2.70
2023-05-02T21:28:42.352Z,3.20
2023-05-02T21:31:09.951Z,3.00
2023-05-02T21:33:37.348Z,3.08
2023-05-02T21:36:04.871Z,2.45
2023-05-02T21:38:32.168Z,2.88
2023-05-02T21:41:04.680Z,2.83
2023-05-02T21:43:39.081Z,2.53
2023-05-02T21:46:06.733Z,3.53
2023-05-02T21:48:34.480Z,2.83
2023-05-02T21:51:09.757Z,3.00
2023-05-02T21:53:37.529Z,2.70
2023-05-02T21:56:07.877Z,4.07
2023-05-02T21:58:35.310Z,2.65
2023-05-02T22:01:03.259Z,3.28
2023-05-02T22:03:31.016Z,3.05
2023-05-02T22:06:01.054Z,3.30
2023-05-02T22:08:29.531Z,3.28
2023-05-02T22:10:58.540Z,2.92
2023-05-02T22:13:25.805Z,3.17
2023-05-02T22:15:53.087Z,2.55
2023-05-02T22:18:20.490Z,3.22
2023-05-02T22:20:48.218Z,3.10
2023-05-02T22:23:15.793Z,3.22
2023-05-02T22:25:46.293Z,2.55
2023-05-02T22:28:13.903Z,3.75
2023-05-02T22:30:45.124Z,3.22
2023-05-02T22:33:14.168Z,3.22
2023-05-02T22:35:44.445Z,3.30
2023-05-02T22:38:18.914Z,2.50
2023-05-02T22:40:46.656Z,3.45
2023-05-02T22:43:13.950Z,2.97
2023-05-02T22:45:41.219Z,3.17
2023-05-02T22:48:08.549Z,3.10
2023-05-02T22:50:35.845Z,2.78
2023-05-02T22:53:05.838Z,3.25
2023-05-02T22:55:37.127Z,3.75
2023-05-02T22:58:04.482Z,3.20
2023-05-02T23:00:32.108Z,3.60
2023-05-02T23:03:00.228Z,3.95
2023-05-02T23:05:27.670Z,3.33
2023-05-02T23:07:55.435Z,2.90
2023-05-02T23:10:22.787Z,3.33
2023-05-02T23:12:50.098Z,3.28
2023-05-02T23:15:17.794Z,3.28
2023-05-02T23:17:45.116Z,3.53
2023-05-02T23:20:12.757Z,2.60
2023-05-02T23:22:46.672Z,3.67
2023-05-02T23:25:15.649Z,3.50
2023-05-02T23:27:42.943Z,3.53
2023-05-02T23:30:11.109Z,3.40
2023-05-02T23:32:39.436Z,4.10
2023-05-02T23:35:07.957Z,3.30
2023-05-02T23:37:35.841Z,3.40
2023-05-02T23:40:03.710Z,3.78
2023-05-02T23:42:32.040Z,3.13
2023-05-02T23:44:59.337Z,3.10
2023-05-02T23:47:27.110Z,3.70
2023-05-02T23:49:54.577Z,3.42
2023-05-02T23:52:21.810Z,4.22
2023-05-02T23:54:52.257Z,2.85
2023-05-02T23:57:19.601Z,3.42
2023-05-02T23:59:46.931Z,3.90
